sensor_id;sensor_type;location;lat;lon;timestamp;temperature;humidity
18597;DHT22;9428;50.950;6.912;2022-07-29T00:00:56;20.40;99.90
18597;DHT22;9428;50.950;6.912;2022-07-29T00:03:43;20.40;99.90
18597;DHT22;9428;50.950;6.912;2022-07-29T00:06:30;20.40;99.90
18597;DHT22;9428;50.950;6.912;2022-07-29T00:09:18;20.30;99.90
18597;DHT22;9428;50.950;6.912;2022-07-29T00:12:05;20.60;99.90
18597;DHT22;9428;50.950;6.912;2022-07-29T00:14:54;20.40;99.90
18597;DHT22;9428;50.950;6.912;2022-07-29T00:17:42;20.30;99.90
18597;DHT22;9428;50.950;6.912;2022-07-29T00:20:29;20.30;99.90
18597;DHT22;9428;50.950;6.912;2022-07-29T00:23:17;20.20;99.90
18597;DHT22;9428;50.950;6.912;2022-07-29T00:26:04;20.20;99.90
18597;DHT22;9428;50.950;6.912;2022-07-29T00:28:51;20.20;99.90
18597;DHT22;9428;50.950;6.912;2022-07-29T00:31:40;20.20;99.90
18597;DHT22;9428;50.950;6.912;2022-07-29T00:34:27;20.30;99.90
18597;DHT22;9428;50.950;6.912;2022-07-29T00:37:32;20.30;99.90
18597;DHT22;9428;50.950;6.912;2022-07-29T00:40:19;20.30;99.90
18597;DHT22;9428;50.950;6.912;2022-07-29T00:43:07;20.20;99.90
18597;DHT22;9428;50.950;6.912;2022-07-29T00:45:54;20.30;99.90
18597;DHT22;9428;50.950;6.912;2022-07-29T00:48:43;20.30;99.90
18597;DHT22;9428;50.950;6.912;2022-07-29T00:51:30;20.20;99.90
18597;DHT22;9428;50.950;6.912;2022-07-29T00:54:18;20.10;99.90
18597;DHT22;9428;50.950;6.912;2022-07-29T00:57:06;20.10;99.90
18597;DHT22;9428;50.950;6.912;2022-07-29T00:59:54;20.20;99.90
18597;DHT22;9428;50.950;6.912;2022-07-29T01:02:43;20.10;99.90
18597;DHT22;9428;50.950;6.912;2022-07-29T01:05:33;20.10;99.90
18597;DHT22;9428;50.950;6.912;2022-07-29T01:08:22;20.10;99.90
18597;DHT22;9428;50.950;6.912;2022-07-29T01:11:10;20.20;99.90
18597;DHT22;9428;50.950;6.912;2022-07-29T01:13:58;20.20;99.90
18597;DHT22;9428;50.950;6.912;2022-07-29T01:16:51;20.20;99.90
18597;DHT22;9428;50.950;6.912;2022-07-29T01:20:00;20.10;99.90
18597;DHT22;9428;50.950;6.912;2022-07-29T01:23:07;20.10;99.90
18597;DHT22;9428;50.950;6.912;2022-07-29T01:26:08;20.00;99.90
18597;DHT22;9428;50.950;6.912;2022-07-29T01:29:12;20.00;99.90
18597;DHT22;9428;50.950;6.912;2022-07-29T01:32:05;20.10;99.90
18597;DHT22;9428;50.950;6.912;2022-07-29T01:34:57;20.10;99.90
18597;DHT22;9428;50.950;6.912;2022-07-29T01:37:48;20.10;99.90
18597;DHT22;9428;50.950;6.912;2022-07-29T01:40:42;20.10;99.90
18597;DHT22;9428;50.950;6.912;2022-07-29T01:43:40;20.10;99.90
18597;DHT22;9428;50.950;6.912;2022-07-29T01:46:33;20.20;99.90
18597;DHT22;9428;50.950;6.912;2022-07-29T01:49:24;20.10;99.90
18597;DHT22;9428;50.950;6.912;2022-07-29T01:52:15;20.20;99.90
18597;DHT22;9428;50.950;6.912;2022-07-29T01:55:11;20.10;99.90
18597;DHT22;9428;50.950;6.912;2022-07-29T01:58:00;20.00;99.90
18597;DHT22;9428;50.950;6.912;2022-07-29T02:00:50;20.00;99.90
18597;DHT22;9428;50.950;6.912;2022-07-29T02:03:43;20.00;99.90
18597;DHT22;9428;50.950;6.912;2022-07-29T02:06:33;20.10;99.90
18597;DHT22;9428;50.950;6.912;2022-07-29T02:09:22;20.00;99.90
18597;DHT22;9428;50.950;6.912;2022-07-29T02:12:12;20.00;99.90
18597;DHT22;9428;50.950;6.912;2022-07-29T02:15:01;20.00;99.90
18597;DHT22;9428;50.950;6.912;2022-07-29T02:17:53;20.00;99.90
18597;DHT22;9428;50.950;6.912;2022-07-29T02:20:45;19.90;99.90
18597;DHT22;9428;50.950;6.912;2022-07-29T02:23:35;20.00;99.90
18597;DHT22;9428;50.950;6.912;2022-07-29T02:26:26;20.00;99.90
18597;DHT22;9428;50.950;6.912;2022-07-29T02:29:15;20.00;99.90
18597;DHT22;9428;50.950;6.912;2022-07-29T02:32:04;20.00;99.90
18597;DHT22;9428;50.950;6.912;2022-07-29T02:34:54;19.90;99.90
18597;DHT22;9428;50.950;6.912;2022-07-29T02:37:44;19.80;99.90
18597;DHT22;9428;50.950;6.912;2022-07-29T02:40:53;19.80;99.90
18597;DHT22;9428;50.950;6.912;2022-07-29T02:43:43;19.70;99.90
18597;DHT22;9428;50.950;6.912;2022-07-29T02:46:34;19.70;99.90
18597;DHT22;9428;50.950;6.912;2022-07-29T02:49:32;19.60;99.90
18597;DHT22;9428;50.950;6.912;2022-07-29T02:52:26;19.60;99.90
18597;DHT22;9428;50.950;6.912;2022-07-29T02:55:24;19.60;99.90
18597;DHT22;9428;50.950;6.912;2022-07-29T02:58:15;19.60;99.90
18597;DHT22;9428;50.950;6.912;2022-07-29T03:01:10;19.40;99.90
18597;DHT22;9428;50.950;6.912;2022-07-29T03:04:03;19.40;99.90
18597;DHT22;9428;50.950;6.912;2022-07-29T03:06:51;19.20;99.90
18597;DHT22;9428;50.950;6.912;2022-07-29T03:09:40;19.20;99.90
18597;DHT22;9428;50.950;6.912;2022-07-29T03:12:30;19.00;99.90
18597;DHT22;9428;50.950;6.912;2022-07-29T03:15:18;19.00;99.90
18597;DHT22;9428;50.950;6.912;2022-07-29T03:18:06;18.90;99.90
18597;DHT22;9428;50.950;6.912;2022-07-29T03:20:54;18.90;99.90
18597;DHT22;9428;50.950;6.912;2022-07-29T03:23:44;18.90;99.90
18597;DHT22;9428;50.950;6.912;2022-07-29T03:26:31;18.90;99.90
18597;DHT22;9428;50.950;6.912;2022-07-29T03:29:21;18.90;99.90
18597;DHT22;9428;50.950;6.912;2022-07-29T03:32:09;18.80;99.90
18597;DHT22;9428;50.950;6.912;2022-07-29T03:34:56;18.90;99.90
18597;DHT22;9428;50.950;6.912;2022-07-29T03:37:43;18.80;99.90
18597;DHT22;9428;50.950;6.912;2022-07-29T03:40:33;18.70;99.90
18597;DHT22;9428;50.950;6.912;2022-07-29T03:43:22;18.90;99.90
18597;DHT22;9428;50.950;6.912;2022-07-29T03:46:11;18.90;99.90
18597;DHT22;9428;50.950;6.912;2022-07-29T03:49:03;18.90;99.90
18597;DHT22;9428;50.950;6.912;2022-07-29T03:51:51;18.90;99.90
18597;DHT22;9428;50.950;6.912;2022-07-29T03:54:38;19.00;99.90
18597;DHT22;9428;50.950;6.912;2022-07-29T03:57:27;18.90;99.90
18597;DHT22;9428;50.950;6.912;2022-07-29T04:00:17;19.00;99.90
18597;DHT22;9428;50.950;6.912;2022-07-29T04:03:06;19.00;99.90
18597;DHT22;9428;50.950;6.912;2022-07-29T04:06:01;18.80;99.90
18597;DHT22;9428;50.950;6.912;2022-07-29T04:08:48;18.80;99.90
18597;DHT22;9428;50.950;6.912;2022-07-29T04:11:36;18.80;99.90
18597;DHT22;9428;50.950;6.912;2022-07-29T04:14:23;18.70;99.90
18597;DHT22;9428;50.950;6.912;2022-07-29T04:17:11;18.70;99.90
18597;DHT22;9428;50.950;6.912;2022-07-29T04:19:59;18.80;99.90
18597;DHT22;9428;50.950;6.912;2022-07-29T04:22:46;18.70;99.90
18597;DHT22;9428;50.950;6.912;2022-07-29T04:25:37;18.70;99.90
18597;DHT22;9428;50.950;6.912;2022-07-29T04:28:24;18.60;99.90
18597;DHT22;9428;50.950;6.912;2022-07-29T04:31:12;18.50;99.90
18597;DHT22;9428;50.950;6.912;2022-07-29T04:33:59;18.60;99.90
18597;DHT22;9428;50.950;6.912;2022-07-29T04:36:48;18.60;99.90
18597;DHT22;9428;50.950;6.912;2022-07-29T04:39:35;18.60;99.90
18597;DHT22;9428;50.950;6.912;2022-07-29T04:42:23;18.60;99.90
18597;DHT22;9428;50.950;6.912;2022-07-29T04:45:10;18.60;99.90
18597;DHT22;9428;50.950;6.912;2022-07-29T04:47:57;18.50;99.90
18597;DHT22;9428;50.950;6.912;2022-07-29T04:50:45;18.60;99.90
18597;DHT22;9428;50.950;6.912;2022-07-29T04:53:33;18.60;99.90
18597;DHT22;9428;50.950;6.912;2022-07-29T04:56:20;18.70;99.90
18597;DHT22;9428;50.950;6.912;2022-07-29T04:59:08;18.50;99.90
18597;DHT22;9428;50.950;6.912;2022-07-29T05:01:55;18.70;99.90
18597;DHT22;9428;50.950;6.912;2022-07-29T05:04:42;18.60;99.90
18597;DHT22;9428;50.950;6.912;2022-07-29T05:07:29;18.70;99.90
18597;DHT22;9428;50.950;6.912;2022-07-29T05:10:18;18.70;99.90
18597;DHT22;9428;50.950;6.912;2022-07-29T05:13:06;18.70;99.90
18597;DHT22;9428;50.950;6.912;2022-07-29T05:15:53;18.70;99.90
18597;DHT22;9428;50.950;6.912;2022-07-29T05:18:41;18.70;99.90
18597;DHT22;9428;50.950;6.912;2022-07-29T05:21:28;18.80;99.90
18597;DHT22;9428;50.950;6.912;2022-07-29T05:24:15;18.80;99.90
18597;DHT22;9428;50.950;6.912;2022-07-29T05:27:04;18.90;99.90
18597;DHT22;9428;50.950;6.912;2022-07-29T05:29:51;18.90;99.90
18597;DHT22;9428;50.950;6.912;2022-07-29T05:32:39;18.80;99.90
18597;DHT22;9428;50.950;6.912;2022-07-29T05:35:26;18.80;99.90
18597;DHT22;9428;50.950;6.912;2022-07-29T05:38:13;18.80;99.90
18597;DHT22;9428;50.950;6.912;2022-07-29T05:41:01;19.00;99.90
18597;DHT22;9428;50.950;6.912;2022-07-29T05:43:50;18.90;99.90
18597;DHT22;9428;50.950;6.912;2022-07-29T05:46:37;18.90;99.90
18597;DHT22;9428;50.950;6.912;2022-07-29T05:49:24;19.00;99.90
18597;DHT22;9428;50.950;6.912;2022-07-29T05:52:12;18.90;99.90
18597;DHT22;9428;50.950;6.912;2022-07-29T05:55:00;19.00;99.90
18597;DHT22;9428;50.950;6.912;2022-07-29T05:57:51;19.00;99.90
18597;DHT22;9428;50.950;6.912;2022-07-29T06:00:40;19.10;99.90
18597;DHT22;9428;50.950;6.912;2022-07-29T06:03:28;19.10;99.90
18597;DHT22;9428;50.950;6.912;2022-07-29T06:06:16;19.20;99.90
18597;DHT22;9428;50.950;6.912;2022-07-29T06:09:03;19.30;99.90
18597;DHT22;9428;50.950;6.912;2022-07-29T06:11:50;19.20;99.90
18597;DHT22;9428;50.950;6.912;2022-07-29T06:14:38;19.20;99.90
18597;DHT22;9428;50.950;6.912;2022-07-29T06:17:26;19.40;99.90
18597;DHT22;9428;50.950;6.912;2022-07-29T06:20:14;19.40;99.90
18597;DHT22;9428;50.950;6.912;2022-07-29T06:23:01;19.40;99.90
18597;DHT22;9428;50.950;6.912;2022-07-29T06:25:50;19.40;99.90
18597;DHT22;9428;50.950;6.912;2022-07-29T06:28:37;19.40;99.90
18597;DHT22;9428;50.950;6.912;2022-07-29T06:31:24;19.30;99.90
18597;DHT22;9428;50.950;6.912;2022-07-29T06:34:13;19.40;99.90
18597;DHT22;9428;50.950;6.912;2022-07-29T06:37:05;19.30;99.90
18597;DHT22;9428;50.950;6.912;2022-07-29T06:39:52;19.10;99.90
18597;DHT22;9428;50.950;6.912;2022-07-29T06:43:00;19.10;99.90
18597;DHT22;9428;50.950;6.912;2022-07-29T06:45:47;19.20;99.90
18597;DHT22;9428;50.950;6.912;2022-07-29T06:48:35;19.00;99.90
18597;DHT22;9428;50.950;6.912;2022-07-29T06:51:24;19.00;99.90
18597;DHT22;9428;50.950;6.912;2022-07-29T06:54:13;19.00;99.90
18597;DHT22;9428;50.950;6.912;2022-07-29T06:57:00;19.10;99.90
18597;DHT22;9428;50.950;6.912;2022-07-29T06:59:47;19.10;99.90
18597;DHT22;9428;50.950;6.912;2022-07-29T07:02:35;19.20;99.90
18597;DHT22;9428;50.950;6.912;2022-07-29T07:05:22;19.10;99.90
18597;DHT22;9428;50.950;6.912;2022-07-29T07:08:11;19.00;99.90
18597;DHT22;9428;50.950;6.912;2022-07-29T07:10:59;18.80;99.90
18597;DHT22;9428;50.950;6.912;2022-07-29T07:13:46;18.70;99.90
18597;DHT22;9428;50.950;6.912;2022-07-29T07:16:34;18.60;99.90
18597;DHT22;9428;50.950;6.912;2022-07-29T07:19:21;18.50;99.90
18597;DHT22;9428;50.950;6.912;2022-07-29T07:22:08;18.50;99.90
18597;DHT22;9428;50.950;6.912;2022-07-29T07:24:57;18.40;99.90
18597;DHT22;9428;50.950;6.912;2022-07-29T07:27:44;18.20;99.90
18597;DHT22;9428;50.950;6.912;2022-07-29T07:30:31;18.40;99.90
18597;DHT22;9428;50.950;6.912;2022-07-29T07:33:19;18.50;99.90
18597;DHT22;9428;50.950;6.912;2022-07-29T07:36:06;18.60;99.90
18597;DHT22;9428;50.950;6.912;2022-07-29T07:38:54;18.50;99.90
18597;DHT22;9428;50.950;6.912;2022-07-29T07:41:42;18.60;99.90
18597;DHT22;9428;50.950;6.912;2022-07-29T07:44:30;18.60;99.90
18597;DHT22;9428;50.950;6.912;2022-07-29T07:47:18;18.50;99.90
18597;DHT22;9428;50.950;6.912;2022-07-29T07:50:10;18.50;99.90
18597;DHT22;9428;50.950;6.912;2022-07-29T07:52:58;18.80;99.90
18597;DHT22;9428;50.950;6.912;2022-07-29T07:55:47;18.80;99.90
18597;DHT22;9428;50.950;6.912;2022-07-29T07:58:36;18.80;99.90
18597;DHT22;9428;50.950;6.912;2022-07-29T08:01:24;18.90;99.90
18597;DHT22;9428;50.950;6.912;2022-07-29T08:04:11;18.80;99.90
18597;DHT22;9428;50.950;6.912;2022-07-29T08:07:01;18.60;99.90
18597;DHT22;9428;50.950;6.912;2022-07-29T08:09:48;18.80;99.90
18597;DHT22;9428;50.950;6.912;2022-07-29T08:12:35;18.90;99.90
18597;DHT22;9428;50.950;6.912;2022-07-29T08:15:24;18.90;99.90
18597;DHT22;9428;50.950;6.912;2022-07-29T08:18:11;18.50;99.90
18597;DHT22;9428;50.950;6.912;2022-07-29T08:20:59;18.60;99.90
18597;DHT22;9428;50.950;6.912;2022-07-29T08:23:46;18.70;99.90
18597;DHT22;9428;50.950;6.912;2022-07-29T08:26:35;18.60;99.90
18597;DHT22;9428;50.950;6.912;2022-07-29T08:29:22;18.60;99.90
18597;DHT22;9428;50.950;6.912;2022-07-29T08:32:11;18.80;99.90
18597;DHT22;9428;50.950;6.912;2022-07-29T08:34:58;18.90;99.90
18597;DHT22;9428;50.950;6.912;2022-07-29T08:37:46;18.80;99.90
18597;DHT22;9428;50.950;6.912;2022-07-29T08:40:33;18.70;99.90
18597;DHT22;9428;50.950;6.912;2022-07-29T08:43:21;18.60;99.90
18597;DHT22;9428;50.950;6.912;2022-07-29T08:46:08;18.70;99.90
18597;DHT22;9428;50.950;6.912;2022-07-29T08:48:57;18.80;99.90
18597;DHT22;9428;50.950;6.912;2022-07-29T08:51:45;18.80;99.90
18597;DHT22;9428;50.950;6.912;2022-07-29T08:54:32;19.10;99.90
18597;DHT22;9428;50.950;6.912;2022-07-29T08:57:21;19.10;99.90
18597;DHT22;9428;50.950;6.912;2022-07-29T09:00:09;19.20;99.90
18597;DHT22;9428;50.950;6.912;2022-07-29T09:02:57;19.20;99.90
18597;DHT22;9428;50.950;6.912;2022-07-29T09:05:47;19.30;99.90
18597;DHT22;9428;50.950;6.912;2022-07-29T09:08:35;19.30;99.90
18597;DHT22;9428;50.950;6.912;2022-07-29T09:11:22;19.20;99.90
18597;DHT22;9428;50.950;6.912;2022-07-29T09:14:11;19.20;99.90
18597;DHT22;9428;50.950;6.912;2022-07-29T09:16:59;19.10;99.90
18597;DHT22;9428;50.950;6.912;2022-07-29T09:19:47;19.00;99.90
18597;DHT22;9428;50.950;6.912;2022-07-29T09:22:36;19.10;99.90
18597;DHT22;9428;50.950;6.912;2022-07-29T09:25:33;19.00;99.90
18597;DHT22;9428;50.950;6.912;2022-07-29T09:28:20;19.00;99.90
18597;DHT22;9428;50.950;6.912;2022-07-29T09:31:09;19.00;99.90
18597;DHT22;9428;50.950;6.912;2022-07-29T09:33:58;19.20;99.90
18597;DHT22;9428;50.950;6.912;2022-07-29T09:36:47;19.30;99.90
18597;DHT22;9428;50.950;6.912;2022-07-29T09:39:37;19.50;99.90
18597;DHT22;9428;50.950;6.912;2022-07-29T09:42:30;19.60;99.90
18597;DHT22;9428;50.950;6.912;2022-07-29T09:45:29;19.80;99.90
18597;DHT22;9428;50.950;6.912;2022-07-29T09:48:19;20.00;99.90
18597;DHT22;9428;50.950;6.912;2022-07-29T09:51:16;20.10;99.90
18597;DHT22;9428;50.950;6.912;2022-07-29T09:54:21;20.10;99.90
18597;DHT22;9428;50.950;6.912;2022-07-29T09:57:24;20.20;99.90
18597;DHT22;9428;50.950;6.912;2022-07-29T10:00:13;20.30;99.90
18597;DHT22;9428;50.950;6.912;2022-07-29T10:03:01;20.30;99.90
18597;DHT22;9428;50.950;6.912;2022-07-29T10:06:08;20.50;99.90
18597;DHT22;9428;50.950;6.912;2022-07-29T10:09:07;20.60;99.90
18597;DHT22;9428;50.950;6.912;2022-07-29T10:12:06;20.70;99.90
18597;DHT22;9428;50.950;6.912;2022-07-29T10:14:55;20.80;99.90
18597;DHT22;9428;50.950;6.912;2022-07-29T10:17:42;20.90;99.90
18597;DHT22;9428;50.950;6.912;2022-07-29T10:20:30;21.00;99.90
18597;DHT22;9428;50.950;6.912;2022-07-29T10:23:18;20.80;99.90
18597;DHT22;9428;50.950;6.912;2022-07-29T10:26:06;21.00;99.90
18597;DHT22;9428;50.950;6.912;2022-07-29T10:28:53;21.10;99.90
18597;DHT22;9428;50.950;6.912;2022-07-29T10:31:47;20.90;99.90
18597;DHT22;9428;50.950;6.912;2022-07-29T10:34:48;21.00;99.90
18597;DHT22;9428;50.950;6.912;2022-07-29T10:37:52;21.00;99.90
18597;DHT22;9428;50.950;6.912;2022-07-29T10:40:51;21.30;99.90
18597;DHT22;9428;50.950;6.912;2022-07-29T10:44:00;21.40;99.90
18597;DHT22;9428;50.950;6.912;2022-07-29T10:46:50;21.40;99.90
18597;DHT22;9428;50.950;6.912;2022-07-29T10:49:37;21.60;99.90
18597;DHT22;9428;50.950;6.912;2022-07-29T10:52:55;21.50;99.90
18597;DHT22;9428;50.950;6.912;2022-07-29T10:55:45;21.50;99.90
18597;DHT22;9428;50.950;6.912;2022-07-29T10:58:35;21.40;99.90
18597;DHT22;9428;50.950;6.912;2022-07-29T11:01:29;21.60;99.90
18597;DHT22;9428;50.950;6.912;2022-07-29T11:08:20;21.60;99.90
18597;DHT22;9428;50.950;6.912;2022-07-29T11:11:36;21.60;99.90
18597;DHT22;9428;50.950;6.912;2022-07-29T11:14:57;21.60;99.90
18597;DHT22;9428;50.950;6.912;2022-07-29T11:18:05;21.40;99.90
18597;DHT22;9428;50.950;6.912;2022-07-29T11:20:54;21.50;99.90
18597;DHT22;9428;50.950;6.912;2022-07-29T11:23:41;21.80;99.90
18597;DHT22;9428;50.950;6.912;2022-07-29T11:26:29;21.80;99.90
18597;DHT22;9428;50.950;6.912;2022-07-29T11:29:19;22.00;99.90
18597;DHT22;9428;50.950;6.912;2022-07-29T11:32:09;21.90;99.90
18597;DHT22;9428;50.950;6.912;2022-07-29T11:35:16;21.80;99.90
18597;DHT22;9428;50.950;6.912;2022-07-29T11:38:27;22.10;99.90
18597;DHT22;9428;50.950;6.912;2022-07-29T11:41:32;22.10;99.90
18597;DHT22;9428;50.950;6.912;2022-07-29T11:44:55;22.10;99.90
18597;DHT22;9428;50.950;6.912;2022-07-29T11:47:51;22.10;99.90
18597;DHT22;9428;50.950;6.912;2022-07-29T11:50:39;22.30;99.90
18597;DHT22;9428;50.950;6.912;2022-07-29T11:53:28;22.50;99.90
18597;DHT22;9428;50.950;6.912;2022-07-29T11:56:18;22.50;99.90
18597;DHT22;9428;50.950;6.912;2022-07-29T11:59:08;22.30;99.90
18597;DHT22;9428;50.950;6.912;2022-07-29T12:01:57;22.50;99.90
18597;DHT22;9428;50.950;6.912;2022-07-29T12:04:48;22.50;99.90
18597;DHT22;9428;50.950;6.912;2022-07-29T12:07:37;22.80;99.90
18597;DHT22;9428;50.950;6.912;2022-07-29T12:10:30;22.80;99.90
18597;DHT22;9428;50.950;6.912;2022-07-29T12:13:19;22.80;99.90
18597;DHT22;9428;50.950;6.912;2022-07-29T12:16:07;22.90;99.90
18597;DHT22;9428;50.950;6.912;2022-07-29T12:18:56;22.80;99.90
18597;DHT22;9428;50.950;6.912;2022-07-29T12:21:44;22.90;99.90
18597;DHT22;9428;50.950;6.912;2022-07-29T12:24:43;22.80;99.90
18597;DHT22;9428;50.950;6.912;2022-07-29T12:27:32;22.80;99.90
18597;DHT22;9428;50.950;6.912;2022-07-29T12:30:19;22.70;99.90
18597;DHT22;9428;50.950;6.912;2022-07-29T12:33:16;22.80;99.90
18597;DHT22;9428;50.950;6.912;2022-07-29T12:36:03;22.90;99.90
18597;DHT22;9428;50.950;6.912;2022-07-29T12:38:51;22.80;99.90
18597;DHT22;9428;50.950;6.912;2022-07-29T12:41:38;22.90;99.90
18597;DHT22;9428;50.950;6.912;2022-07-29T12:44:43;23.10;99.90
18597;DHT22;9428;50.950;6.912;2022-07-29T12:47:31;23.30;99.90
18597;DHT22;9428;50.950;6.912;2022-07-29T12:50:19;23.20;99.90
18597;DHT22;9428;50.950;6.912;2022-07-29T12:53:11;23.10;99.90
18597;DHT22;9428;50.950;6.912;2022-07-29T12:55:59;23.20;99.90
18597;DHT22;9428;50.950;6.912;2022-07-29T12:58:47;23.20;99.90
18597;DHT22;9428;50.950;6.912;2022-07-29T13:01:38;23.20;99.90
18597;DHT22;9428;50.950;6.912;2022-07-29T13:04:27;23.00;99.90
18597;DHT22;9428;50.950;6.912;2022-07-29T13:07:24;23.20;99.90
18597;DHT22;9428;50.950;6.912;2022-07-29T13:10:16;23.20;99.90
18597;DHT22;9428;50.950;6.912;2022-07-29T13:13:08;23.30;99.90
18597;DHT22;9428;50.950;6.912;2022-07-29T13:16:06;23.30;99.90
18597;DHT22;9428;50.950;6.912;2022-07-29T13:19:17;23.40;99.90
18597;DHT22;9428;50.950;6.912;2022-07-29T13:22:04;23.40;99.90
18597;DHT22;9428;50.950;6.912;2022-07-29T13:24:54;23.50;99.90
18597;DHT22;9428;50.950;6.912;2022-07-29T13:27:41;23.40;99.90
18597;DHT22;9428;50.950;6.912;2022-07-29T13:30:31;23.60;99.90
18597;DHT22;9428;50.950;6.912;2022-07-29T13:33:18;23.60;99.90
18597;DHT22;9428;50.950;6.912;2022-07-29T13:36:07;23.50;99.90
18597;DHT22;9428;50.950;6.912;2022-07-29T13:38:55;23.50;99.90
18597;DHT22;9428;50.950;6.912;2022-07-29T13:41:42;23.50;99.90
18597;DHT22;9428;50.950;6.912;2022-07-29T13:44:29;23.50;99.90
18597;DHT22;9428;50.950;6.912;2022-07-29T13:47:16;23.50;99.90
18597;DHT22;9428;50.950;6.912;2022-07-29T13:50:06;23.50;99.90
18597;DHT22;9428;50.950;6.912;2022-07-29T13:52:55;23.60;99.90
18597;DHT22;9428;50.950;6.912;2022-07-29T13:55:42;23.50;99.90
18597;DHT22;9428;50.950;6.912;2022-07-29T13:58:29;23.30;99.90
18597;DHT22;9428;50.950;6.912;2022-07-29T14:01:17;23.60;99.90
18597;DHT22;9428;50.950;6.912;2022-07-29T14:04:04;23.50;99.90
18597;DHT22;9428;50.950;6.912;2022-07-29T14:06:51;23.50;99.90
18597;DHT22;9428;50.950;6.912;2022-07-29T14:09:40;23.40;99.90
18597;DHT22;9428;50.950;6.912;2022-07-29T14:12:27;23.50;99.90
18597;DHT22;9428;50.950;6.912;2022-07-29T14:15:14;23.30;99.90
18597;DHT22;9428;50.950;6.912;2022-07-29T14:18:02;23.50;99.90
18597;DHT22;9428;50.950;6.912;2022-07-29T14:20:49;23.60;99.90
18597;DHT22;9428;50.950;6.912;2022-07-29T14:23:36;23.70;99.90
18597;DHT22;9428;50.950;6.912;2022-07-29T14:26:25;23.40;99.90
18597;DHT22;9428;50.950;6.912;2022-07-29T14:29:13;23.30;99.90
18597;DHT22;9428;50.950;6.912;2022-07-29T14:32:00;23.30;99.90
18597;DHT22;9428;50.950;6.912;2022-07-29T14:34:47;23.40;99.90
18597;DHT22;9428;50.950;6.912;2022-07-29T14:37:35;23.50;99.90
18597;DHT22;9428;50.950;6.912;2022-07-29T14:40:23;23.60;99.90
18597;DHT22;9428;50.950;6.912;2022-07-29T14:43:12;23.60;99.90
18597;DHT22;9428;50.950;6.912;2022-07-29T14:46:00;23.80;99.90
18597;DHT22;9428;50.950;6.912;2022-07-29T14:48:47;23.70;99.90
18597;DHT22;9428;50.950;6.912;2022-07-29T14:51:35;23.70;99.90
18597;DHT22;9428;50.950;6.912;2022-07-29T14:54:23;23.50;99.90
18597;DHT22;9428;50.950;6.912;2022-07-29T14:57:10;23.50;99.90
18597;DHT22;9428;50.950;6.912;2022-07-29T14:59:59;23.50;99.90
18597;DHT22;9428;50.950;6.912;2022-07-29T15:02:46;23.60;99.90
18597;DHT22;9428;50.950;6.912;2022-07-29T15:05:34;23.60;99.90
18597;DHT22;9428;50.950;6.912;2022-07-29T15:08:21;23.90;99.90
18597;DHT22;9428;50.950;6.912;2022-07-29T15:11:08;23.90;99.90
18597;DHT22;9428;50.950;6.912;2022-07-29T15:13:56;23.80;99.90
18597;DHT22;9428;50.950;6.912;2022-07-29T15:16:44;23.70;99.90
18597;DHT22;9428;50.950;6.912;2022-07-29T15:19:31;23.70;99.90
18597;DHT22;9428;50.950;6.912;2022-07-29T15:22:19;23.80;99.90
18597;DHT22;9428;50.950;6.912;2022-07-29T15:25:07;23.70;99.90
18597;DHT22;9428;50.950;6.912;2022-07-29T15:27:54;23.70;99.90
18597;DHT22;9428;50.950;6.912;2022-07-29T15:30:41;23.80;99.90
18597;DHT22;9428;50.950;6.912;2022-07-29T15:33:30;24.00;99.90
18597;DHT22;9428;50.950;6.912;2022-07-29T15:36:17;24.00;99.90
18597;DHT22;9428;50.950;6.912;2022-07-29T15:39:04;23.90;99.90
18597;DHT22;9428;50.950;6.912;2022-07-29T15:41:52;24.00;99.90
18597;DHT22;9428;50.950;6.912;2022-07-29T15:44:39;24.10;99.90
18597;DHT22;9428;50.950;6.912;2022-07-29T15:47:27;24.10;99.90
18597;DHT22;9428;50.950;6.912;2022-07-29T15:50:15;24.20;99.90
18597;DHT22;9428;50.950;6.912;2022-07-29T15:53:03;23.90;99.90
18597;DHT22;9428;50.950;6.912;2022-07-29T15:55:50;24.10;99.90
18597;DHT22;9428;50.950;6.912;2022-07-29T15:58:38;23.90;99.90
18597;DHT22;9428;50.950;6.912;2022-07-29T16:01:25;23.90;99.90
18597;DHT22;9428;50.950;6.912;2022-07-29T16:04:12;23.70;99.90
18597;DHT22;9428;50.950;6.912;2022-07-29T16:07:01;23.70;99.90
18597;DHT22;9428;50.950;6.912;2022-07-29T16:09:48;23.80;99.90
18597;DHT22;9428;50.950;6.912;2022-07-29T16:12:35;23.70;99.90
18597;DHT22;9428;50.950;6.912;2022-07-29T16:15:23;23.70;99.90
18597;DHT22;9428;50.950;6.912;2022-07-29T16:18:10;23.60;99.90
18597;DHT22;9428;50.950;6.912;2022-07-29T16:20:58;23.50;99.90
18597;DHT22;9428;50.950;6.912;2022-07-29T16:23:47;23.50;99.90
18597;DHT22;9428;50.950;6.912;2022-07-29T16:26:34;23.70;99.90
18597;DHT22;9428;50.950;6.912;2022-07-29T16:29:22;23.80;99.90
18597;DHT22;9428;50.950;6.912;2022-07-29T16:32:09;23.90;99.90
18597;DHT22;9428;50.950;6.912;2022-07-29T16:34:56;23.70;99.90
18597;DHT22;9428;50.950;6.912;2022-07-29T16:37:47;23.50;99.90
18597;DHT22;9428;50.950;6.912;2022-07-29T16:40:35;23.40;99.90
18597;DHT22;9428;50.950;6.912;2022-07-29T16:43:23;23.40;99.90
18597;DHT22;9428;50.950;6.912;2022-07-29T16:46:11;23.50;99.90
18597;DHT22;9428;50.950;6.912;2022-07-29T16:48:58;23.50;99.90
18597;DHT22;9428;50.950;6.912;2022-07-29T16:51:45;23.50;99.90
18597;DHT22;9428;50.950;6.912;2022-07-29T16:54:33;23.50;99.90
18597;DHT22;9428;50.950;6.912;2022-07-29T16:57:22;23.60;99.90
18597;DHT22;9428;50.950;6.912;2022-07-29T17:00:10;23.70;99.90
18597;DHT22;9428;50.950;6.912;2022-07-29T17:02:58;23.60;99.90
18597;DHT22;9428;50.950;6.912;2022-07-29T17:05:45;23.60;99.90
18597;DHT22;9428;50.950;6.912;2022-07-29T17:08:33;23.60;99.90
18597;DHT22;9428;50.950;6.912;2022-07-29T17:11:21;23.70;99.90
18597;DHT22;9428;50.950;6.912;2022-07-29T17:14:09;23.70;99.90
18597;DHT22;9428;50.950;6.912;2022-07-29T17:16:58;23.90;99.90
18597;DHT22;9428;50.950;6.912;2022-07-29T17:19:46;23.80;99.90
18597;DHT22;9428;50.950;6.912;2022-07-29T17:22:33;23.80;99.90
18597;DHT22;9428;50.950;6.912;2022-07-29T17:25:20;23.60;99.90
18597;DHT22;9428;50.950;6.912;2022-07-29T17:28:08;23.50;99.90
18597;DHT22;9428;50.950;6.912;2022-07-29T17:30:56;23.50;99.90
18597;DHT22;9428;50.950;6.912;2022-07-29T17:33:44;23.60;99.90
18597;DHT22;9428;50.950;6.912;2022-07-29T17:36:31;23.50;99.90
18597;DHT22;9428;50.950;6.912;2022-07-29T17:39:18;23.50;99.90
18597;DHT22;9428;50.950;6.912;2022-07-29T17:42:06;23.50;99.90
18597;DHT22;9428;50.950;6.912;2022-07-29T17:44:54;23.50;99.90
18597;DHT22;9428;50.950;6.912;2022-07-29T17:47:42;23.50;99.90
18597;DHT22;9428;50.950;6.912;2022-07-29T17:50:30;23.50;99.90
18597;DHT22;9428;50.950;6.912;2022-07-29T17:53:17;23.50;99.90
18597;DHT22;9428;50.950;6.912;2022-07-29T17:56:05;23.60;99.90
18597;DHT22;9428;50.950;6.912;2022-07-29T17:58:52;23.60;99.90
18597;DHT22;9428;50.950;6.912;2022-07-29T18:01:40;23.50;99.90
18597;DHT22;9428;50.950;6.912;2022-07-29T18:04:28;23.40;99.90
18597;DHT22;9428;50.950;6.912;2022-07-29T18:07:16;23.50;99.90
18597;DHT22;9428;50.950;6.912;2022-07-29T18:10:04;23.40;99.90
18597;DHT22;9428;50.950;6.912;2022-07-29T18:12:51;23.30;99.90